Time;durP1;ratioP1;P1;durP2;ratioP2;P2;SDS_P1;SDS_P2;PMS_P1;PMS_P2;Temp;Humidity;BMP_temperature;BMP_pressure;BME280_temperature;BME280_humidity;BME280_pressure;Samples;Min_cycle;Max_cycle;Signal;HPM_P1;HPM_P2
2023/01/26 06:55:03;;;;;;;23.63;14.30;;;;;;;;;;10563054;27;20105;-80
2023/01/26 07:00:05;;;;;;;24.73;14.65;;;;;;;;;;10560294;28;20039;-81
2023/01/26 07:05:06;;;;;;;23.65;14.07;;;;;;;;;;10562623;28;20032;-82
2023/01/26 07:10:07;;;;;;;22.70;14.80;;;;;;;;;;10561653;28;20060;-82
2023/01/26 07:15:08;;;;;;;;;;;;;;;;;;10561132;28;20024;-81
2023/01/26 07:20:10;;;;;;;25.17;16.80;;;;;;;;;;10564094;28;19969;-81
2023/01/26 07:25:11;;;;;;;;;;;;;;;;;;10563879;28;20056;-80
2023/01/26 07:30:13;;;;;;;22.85;14.82;;;;;;;;;;10578885;28;19968;-81
2023/01/26 07:35:14;;;;;;;19.75;13.27;;;;;;;;;;10563367;28;20024;-82
2023/01/26 07:40:15;;;;;;;19.85;14.18;;;;;;;;;;10561757;28;20032;-81
2023/01/26 07:45:16;;;;;;;;;;;;;;;;;;10563150;28;20157;-81
2023/01/26 07:50:19;;;;;;;19.08;13.65;;;;;;;;;;10574776;28;19915;-81
2023/01/26 07:55:22;;;;;;;20.83;14.98;;;;;;;;;;10559185;28;20028;-81
2023/01/26 08:00:23;;;;;;;17.80;13.02;;;;;;;;;;10561650;28;20024;-81
2023/01/26 08:05:24;;;;;;;21.38;14.82;;;;;;;;;;10536040;28;20476;-83
2023/01/26 08:10:25;;;;;;;24.33;16.30;;;;;;;;;;10522919;28;20029;-81
2023/01/26 08:15:27;;;;;;;21.13;15.20;;;;;;;;;;10535097;28;20022;-80
2023/01/26 08:20:28;;;;;;;22.15;16.05;;;;;;;;;;10538276;28;20043;-80
2023/01/26 08:25:31;;;;;;;29.50;20.63;;;;;;;;;;10540383;28;20032;-80
2023/01/26 08:30:32;;;;;;;21.80;15.70;;;;;;;;;;10537906;28;20096;-80
2023/01/26 08:35:33;;;;;;;21.02;14.40;;;;;;;;;;10537167;28;20017;-80
2023/01/26 08:40:34;;;;;;;;;;;;;;;;;;10532485;28;20032;-80
2023/01/26 08:45:35;;;;;;;20.77;14.90;;;;;;;;;;10548164;28;19940;-80
2023/01/26 08:50:36;;;;;;;19.88;14.68;;;;;;;;;;10532339;28;20040;-80
2023/01/26 08:55:37;;;;;;;23.15;16.25;;;;;;;;;;10520269;28;20029;-79
2023/01/26 09:00:38;;;;;;;25.33;17.45;;;;;;;;;;10523957;28;20028;-83
2023/01/26 09:05:40;;;;;;;23.52;16.08;;;;;;;;;;10529964;28;20044;-80
2023/01/26 09:10:43;;;;;;;20.15;14.95;;;;;;;;;;10527392;28;20020;-81
2023/01/26 09:15:45;;;;;;;19.05;14.10;;;;;;;;;;10527787;28;20017;-80
2023/01/26 09:20:46;;;;;;;18.38;13.68;;;;;;;;;;10522963;28;20440;-81
2023/01/26 09:25:52;;;;;;;19.23;13.63;;;;;;;;;;10522475;28;20020;-80
2023/01/26 09:30:53;;;;;;;18.38;13.30;;;;;;;;;;10518026;28;20032;-81
2023/01/26 09:35:54;;;;;;;17.38;12.18;;;;;;;;;;10520386;28;20028;-80
2023/01/26 09:41:01;;;;;;;15.43;11.70;;;;;;;;;;10521718;28;20033;-80
2023/01/26 09:46:02;;;;;;;14.70;10.80;;;;;;;;;;10523936;28;20069;-80
2023/01/26 09:51:06;;;;;;;14.90;9.80;;;;;;;;;;10528491;28;20063;-82
2023/01/26 09:56:13;;;;;;;14.35;10.60;;;;;;;;;;10531923;28;20044;-81
2023/01/26 10:01:17;;;;;;;14.15;9.82;;;;;;;;;;10539432;28;20031;-82
2023/01/26 10:06:22;;;;;;;12.18;9.13;;;;;;;;;;10533363;28;20039;-81
2023/01/26 10:11:30;;;;;;;13.05;9.50;;;;;;;;;;10524768;28;20084;-81
2023/01/26 10:16:33;;;;;;;12.32;8.82;;;;;;;;;;10522225;28;20028;-82
2023/01/26 10:21:37;;;;;;;12.45;8.48;;;;;;;;;;10516091;28;20028;-81
2023/01/26 10:26:38;;;;;;;11.65;8.13;;;;;;;;;;10529323;28;20016;-81
2023/01/26 10:31:39;;;;;;;8.90;7.03;;;;;;;;;;10546228;28;20028;-81
2023/01/26 10:36:41;;;;;;;10.75;7.90;;;;;;;;;;10535027;28;20098;-83
2023/01/26 10:42:01;;;;;;;9.52;7.20;;;;;;;;;;10510960;28;20021;-82
2023/01/26 10:47:04;;;;;;;10.57;6.63;;;;;;;;;;10510604;28;20024;-83
2023/01/26 10:52:16;;;;;;;11.13;6.65;;;;;;;;;;10513937;28;20051;-81
2023/01/26 10:57:18;;;;;;;10.20;6.05;;;;;;;;;;10512825;28;20367;-82
2023/01/26 11:02:26;;;;;;;8.77;6.25;;;;;;;;;;10513151;28;20024;-83
2023/01/26 11:07:28;;;;;;;8.07;5.60;;;;;;;;;;10516492;28;20024;-81
2023/01/26 11:12:29;;;;;;;8.68;6.18;;;;;;;;;;10525293;28;20489;-81
2023/01/26 11:17:35;;;;;;;7.07;5.60;;;;;;;;;;10529174;28;20036;-81
2023/01/26 11:22:48;;;;;;;7.53;5.70;;;;;;;;;;10523130;28;20043;-80
2023/01/26 11:28:09;;;;;;;8.38;4.85;;;;;;;;;;10513777;28;20032;-81
2023/01/26 11:33:36;;;;;;;6.25;4.90;;;;;;;;;;10509831;28;20029;-82
2023/01/26 11:38:41;;;;;;;9.13;6.38;;;;;;;;;;10488765;28;20033;-80
2023/01/26 11:43:42;;;;;;;6.15;4.80;;;;;;;;;;10514481;28;20111;-80
2023/01/26 11:48:49;;;;;;;8.05;5.28;;;;;;;;;;10514159;28;20028;-81
2023/01/26 11:53:58;;;;;;;5.97;4.88;;;;;;;;;;10516900;28;20612;-83
2023/01/26 11:59:16;;;;;;;7.20;4.82;;;;;;;;;;10513451;28;20166;-83
2023/01/26 12:04:21;;;;;;;6.63;4.50;;;;;;;;;;10516930;28;20099;-82
2023/01/26 12:09:37;;;;;;;6.47;4.10;;;;;;;;;;10514737;28;20024;-82
2023/01/26 12:15:00;;;;;;;7.07;4.50;;;;;;;;;;10514697;28;20032;-81
2023/01/26 12:20:20;;;;;;;5.95;4.45;;;;;;;;;;10513712;28;20028;-81
2023/01/26 12:25:34;;;;;;;6.68;4.22;;;;;;;;;;10514003;28;20092;-80
2023/01/26 12:30:38;;;;;;;4.78;3.95;;;;;;;;;;10513796;28;20025;-81
2023/01/26 12:35:48;;;;;;;5.43;3.97;;;;;;;;;;10516814;28;20119;-81
2023/01/26 12:40:57;;;;;;;5.20;3.95;;;;;;;;;;10471984;22;20041;-81
2023/01/26 12:46:00;;;;;;;5.00;4.00;;;;;;;;;;10431200;28;20028;-81
2023/01/26 12:51:07;;;;;;;4.25;3.45;;;;;;;;;;10431679;28;20116;-81
2023/01/26 12:56:27;;;;;;;3.97;3.30;;;;;;;;;;10431590;28;20033;-81
2023/01/26 13:01:37;;;;;;;5.05;3.80;;;;;;;;;;10430044;28;20059;-82
2023/01/26 13:06:38;;;;;;;4.60;3.63;;;;;;;;;;10428878;28;20116;-81
2023/01/26 13:11:39;;;;;;;;;;;;;;;;;;10430804;28;20033;-83
2023/01/26 13:16:40;;;;;;;13.60;6.90;;;;;;;;;;10433003;28;20374;-83
2023/01/26 13:21:43;;;;;;;4.07;3.03;;;;;;;;;;10436998;28;20052;-82
2023/01/26 13:26:45;;;;;;;3.67;2.90;;;;;;;;;;10440820;28;20054;-79
2023/01/26 13:31:46;;;;;;;5.18;3.40;;;;;;;;;;10429600;28;20029;-79
2023/01/26 13:36:48;;;;;;;7.57;4.80;;;;;;;;;;10425112;28;20083;-82
2023/01/26 13:41:50;;;;;;;9.38;5.70;;;;;;;;;;10424130;28;20030;-81
2023/01/26 13:46:56;;;;;;;5.95;4.10;;;;;;;;;;10422280;28;20446;-79
2023/01/26 13:51:58;;;;;;;14.40;8.30;;;;;;;;;;10428542;28;20030;-82
2023/01/26 13:57:00;;;;;;;6.65;4.00;;;;;;;;;;10425299;28;20033;-79
2023/01/26 14:02:01;;;;;;;6.75;4.32;;;;;;;;;;10422851;28;20120;-80
2023/01/26 14:07:05;;;;;;;7.82;4.75;;;;;;;;;;10432171;28;20036;-77
2023/01/26 14:12:07;;;;;;;6.88;4.50;;;;;;;;;;10442687;28;20033;-78
2023/01/26 14:17:22;;;;;;;9.65;5.80;;;;;;;;;;10441659;28;20106;-77
2023/01/26 14:22:23;;;;;;;9.52;5.75;;;;;;;;;;10446263;28;20029;-77
2023/01/26 14:27:50;;;;;;;7.90;5.03;;;;;;;;;;10452905;28;20034;-78
2023/01/26 14:33:11;;;;;;;5.97;3.88;;;;;;;;;;10434756;28;20063;-81
2023/01/26 14:38:18;;;;;;;19.55;10.15;;;;;;;;;;10432523;28;20034;-81
2023/01/26 14:43:20;;;;;;;9.57;5.78;;;;;;;;;;10429794;28;20093;-78
2023/01/26 14:48:24;;;;;;;10.25;6.15;;;;;;;;;;10423027;28;20029;-79
2023/01/26 14:53:25;;;;;;;8.32;4.90;;;;;;;;;;10421624;28;20171;-79
2023/01/26 14:58:31;;;;;;;9.48;5.72;;;;;;;;;;10426982;28;20025;-78
2023/01/26 15:03:34;;;;;;;10.00;6.15;;;;;;;;;;10423089;28;20033;-80
2023/01/26 15:08:36;;;;;;;12.95;6.30;;;;;;;;;;10418436;28;20099;-80
2023/01/26 15:13:40;;;;;;;9.30;5.40;;;;;;;;;;10424768;28;20033;-80
2023/01/26 15:18:41;;;;;;;10.88;6.82;;;;;;;;;;10430394;28;20033;-83
2023/01/26 15:23:42;;;;;;;;;;;;;;;;;;10431407;28;20360;-80
2023/01/26 15:28:43;;;;;;;13.68;7.95;;;;;;;;;;10432907;28;19908;-80
2023/01/26 15:33:52;;;;;;;12.82;7.30;;;;;;;;;;10429929;28;20036;-79
2023/01/26 15:38:58;;;;;;;14.75;8.27;;;;;;;;;;10428623;28;20124;-79
2023/01/26 15:43:59;;;;;;;14.07;8.57;;;;;;;;;;10429810;28;20030;-80
2023/01/26 15:49:00;;;;;;;;;;;;;;;;;;10429233;28;20025;-79
2023/01/26 15:54:01;;;;;;;10.35;7.07;;;;;;;;;;10444234;28;19935;-78
2023/01/26 15:59:02;;;;;;;;;;;;;;;;;;10439402;28;20033;-81
2023/01/26 16:04:03;;;;;;;11.93;6.93;;;;;;;;;;10430840;28;19905;-78
2023/01/26 16:09:04;;;;;;;;;;;;;;;;;;10436238;28;20029;-76
2023/01/26 16:14:06;;;;;;;16.08;8.65;;;;;;;;;;10447964;28;19916;-78
2023/01/26 16:19:07;;;;;;;10.00;6.85;;;;;;;;;;10450568;28;20014;-78
2023/01/26 16:24:11;;;;;;;;;;;;;;;;;;10449357;28;20061;-79
2023/01/26 16:29:12;;;;;;;14.73;8.02;;;;;;;;;;10446388;28;20282;-80
2023/01/26 16:34:13;;;;;;;15.02;8.77;;;;;;;;;;10448123;28;20025;-81
2023/01/26 16:39:14;;;;;;;17.35;9.55;;;;;;;;;;10455818;28;20124;-79
2023/01/26 16:44:16;;;;;;;15.82;8.60;;;;;;;;;;10453896;28;20025;-80
2023/01/26 16:49:17;;;;;;;18.63;8.80;;;;;;;;;;10455853;28;20041;-79
2023/01/26 16:54:18;;;;;;;18.95;9.55;;;;;;;;;;10460367;28;20088;-79
2023/01/26 16:59:19;;;;;;;;;;;;;;;;;;10464850;28;20129;-81
2023/01/26 17:04:20;;;;;;;19.25;8.38;;;;;;;;;;10467795;28;20053;-82
2023/01/26 17:09:22;;;;;;;14.65;7.68;;;;;;;;;;10467917;28;20053;-81
2023/01/26 17:14:23;;;;;;;16.00;7.90;;;;;;;;;;10466639;28;20073;-82
2023/01/26 17:19:24;;;;;;;14.27;7.75;;;;;;;;;;10453961;28;20182;-82
2023/01/26 17:24:25;;;;;;;18.13;8.60;;;;;;;;;;10436387;28;20026;-83
2023/01/26 17:29:26;;;;;;;16.08;8.80;;;;;;;;;;10436344;28;20049;-81
2023/01/26 17:34:27;;;;;;;;;;;;;;;;;;10436433;28;20068;-82
2023/01/26 17:39:29;;;;;;;15.02;8.48;;;;;;;;;;10437630;28;20007;-81
2023/01/26 17:44:30;;;;;;;13.00;8.70;;;;;;;;;;10440737;28;20094;-83
2023/01/26 17:49:31;;;;;;;;;;;;;;;;;;10447330;28;20203;-83
2023/01/26 17:54:32;;;;;;;14.02;7.47;;;;;;;;;;10449609;28;19955;-84
2023/01/26 17:59:33;;;;;;;;;;;;;;;;;;10446701;28;20040;-84
2023/01/26 18:04:34;;;;;;;12.38;7.68;;;;;;;;;;10442360;28;19905;-83
2023/01/26 18:09:35;;;;;;;;;;;;;;;;;;10438165;28;20036;-82
2023/01/26 18:14:36;;;;;;;12.18;7.35;;;;;;;;;;10431111;28;19909;-81
2023/01/26 18:19:37;;;;;;;12.70;8.18;;;;;;;;;;10450449;28;20037;-80
2023/01/26 18:24:38;;;;;;;14.13;8.02;;;;;;;;;;10460267;28;20026;-82
2023/01/26 18:29:39;;;;;;;;;;;;;;;;;;10453123;28;20031;-83
2023/01/26 18:34:42;;;;;;;11.40;7.55;;;;;;;;;;10460725;28;20347;-83
2023/01/26 18:39:43;;;;;;;10.88;6.97;;;;;;;;;;10459221;28;20056;-80
2023/01/26 18:44:44;;;;;;;11.77;7.00;;;;;;;;;;10450669;28;20037;-81
2023/01/26 18:49:45;;;;;;;;;;;;;;;;;;10452074;28;20029;-81
2023/01/26 18:54:46;;;;;;;11.93;7.72;;;;;;;;;;10450271;28;19924;-81
2023/01/26 18:59:47;;;;;;;9.55;6.68;;;;;;;;;;10450512;28;20030;-81
2023/01/26 19:04:52;;;;;;;;;;;;;;;;;;10450984;28;20029;-80
2023/01/26 19:09:53;;;;;;;14.98;8.48;;;;;;;;;;10450951;28;19905;-79
2023/01/26 19:14:54;;;;;;;10.70;6.65;;;;;;;;;;10449734;28;20081;-81
2023/01/26 19:19:55;;;;;;;;;;;;;;;;;;10449019;28;20431;-82
2023/01/26 19:24:56;;;;;;;9.32;5.90;;;;;;;;;;10445994;28;19959;-85
2023/01/26 19:29:57;;;;;;;11.02;6.43;;;;;;;;;;10445046;28;20079;-80
2023/01/26 19:34:58;;;;;;;10.63;5.90;;;;;;;;;;10448060;28;20029;-80
2023/01/26 19:39:59;;;;;;;9.40;5.45;;;;;;;;;;10450064;28;20060;-80
2023/01/26 19:45:00;;;;;;;8.52;5.18;;;;;;;;;;10448990;28;20030;-80
2023/01/26 19:50:01;;;;;;;9.43;5.07;;;;;;;;;;10447740;28;20093;-79
2023/01/26 19:55:02;;;;;;;10.27;4.82;;;;;;;;;;10444196;28;20446;-80
2023/01/26 20:00:07;;;;;;;8.98;4.80;;;;;;;;;;10447399;28;20356;-80
2023/01/26 20:05:08;;;;;;;8.43;4.30;;;;;;;;;;10458668;28;20040;-81
2023/01/26 20:10:09;;;;;;;;;;;;;;;;;;10457724;28;20056;-79
2023/01/26 20:15:10;;;;;;;8.82;4.72;;;;;;;;;;10455831;28;19944;-80
